sensor_id;sensor_type;location;lat;lon;timestamp;temperature;humidity
18450;DHT22;9354;50.194;7.690;2023-07-09T00:00:13;21.50;99.90
18450;DHT22;9354;50.194;7.690;2023-07-09T00:02:41;21.60;99.90
18450;DHT22;9354;50.194;7.690;2023-07-09T00:05:13;21.50;99.90
18450;DHT22;9354;50.194;7.690;2023-07-09T00:07:42;21.50;99.90
18450;DHT22;9354;50.194;7.690;2023-07-09T00:10:15;21.40;99.90
18450;DHT22;9354;50.194;7.690;2023-07-09T00:12:42;21.30;99.90
18450;DHT22;9354;50.194;7.690;2023-07-09T00:15:11;21.30;99.90
18450;DHT22;9354;50.194;7.690;2023-07-09T00:17:39;21.20;99.90
18450;DHT22;9354;50.194;7.690;2023-07-09T00:20:12;21.10;99.90
18450;DHT22;9354;50.194;7.690;2023-07-09T00:22:40;21.00;99.90
18450;DHT22;9354;50.194;7.690;2023-07-09T00:25:10;21.00;99.90
18450;DHT22;9354;50.194;7.690;2023-07-09T00:27:42;20.90;99.90
18450;DHT22;9354;50.194;7.690;2023-07-09T00:30:16;20.80;99.90
18450;DHT22;9354;50.194;7.690;2023-07-09T00:32:44;20.70;99.90
18450;DHT22;9354;50.194;7.690;2023-07-09T00:35:13;20.60;99.90
18450;DHT22;9354;50.194;7.690;2023-07-09T00:37:42;20.60;99.90
18450;DHT22;9354;50.194;7.690;2023-07-09T00:40:21;20.50;99.90
18450;DHT22;9354;50.194;7.690;2023-07-09T00:42:50;20.40;99.90
18450;DHT22;9354;50.194;7.690;2023-07-09T00:45:22;20.30;99.90
18450;DHT22;9354;50.194;7.690;2023-07-09T00:47:53;20.30;99.90
18450;DHT22;9354;50.194;7.690;2023-07-09T00:50:34;20.20;99.90
18450;DHT22;9354;50.194;7.690;2023-07-09T00:53:05;20.10;99.90
18450;DHT22;9354;50.194;7.690;2023-07-09T00:55:39;20.10;99.90
18450;DHT22;9354;50.194;7.690;2023-07-09T00:58:13;20.10;99.90
18450;DHT22;9354;50.194;7.690;2023-07-09T01:00:45;20.10;99.90
18450;DHT22;9354;50.194;7.690;2023-07-09T01:03:20;20.10;99.90
18450;DHT22;9354;50.194;7.690;2023-07-09T01:05:50;20.10;99.90
18450;DHT22;9354;50.194;7.690;2023-07-09T01:08:21;20.10;99.90
18450;DHT22;9354;50.194;7.690;2023-07-09T01:10:48;20.20;99.90
18450;DHT22;9354;50.194;7.690;2023-07-09T01:13:17;20.20;99.90
18450;DHT22;9354;50.194;7.690;2023-07-09T01:15:46;20.20;99.90
18450;DHT22;9354;50.194;7.690;2023-07-09T01:18:13;20.20;99.90
18450;DHT22;9354;50.194;7.690;2023-07-09T01:20:41;20.10;99.90
18450;DHT22;9354;50.194;7.690;2023-07-09T01:23:10;20.10;99.90
18450;DHT22;9354;50.194;7.690;2023-07-09T01:25:43;20.00;99.90
18450;DHT22;9354;50.194;7.690;2023-07-09T01:28:11;20.00;99.90
18450;DHT22;9354;50.194;7.690;2023-07-09T01:30:40;20.00;99.90
18450;DHT22;9354;50.194;7.690;2023-07-09T01:33:08;19.90;99.90
18450;DHT22;9354;50.194;7.690;2023-07-09T01:35:38;19.90;99.90
18450;DHT22;9354;50.194;7.690;2023-07-09T01:38:07;19.90;99.90
18450;DHT22;9354;50.194;7.690;2023-07-09T01:40:36;19.90;99.90
18450;DHT22;9354;50.194;7.690;2023-07-09T01:43:04;19.90;99.90
18450;DHT22;9354;50.194;7.690;2023-07-09T01:45:34;19.90;99.90
18450;DHT22;9354;50.194;7.690;2023-07-09T01:48:02;19.90;99.90
18450;DHT22;9354;50.194;7.690;2023-07-09T01:50:30;19.90;99.90
18450;DHT22;9354;50.194;7.690;2023-07-09T01:52:57;19.90;99.90
18450;DHT22;9354;50.194;7.690;2023-07-09T01:55:25;19.90;99.90
18450;DHT22;9354;50.194;7.690;2023-07-09T01:57:55;19.80;99.90
18450;DHT22;9354;50.194;7.690;2023-07-09T02:00:22;19.80;99.90
18450;DHT22;9354;50.194;7.690;2023-07-09T02:02:50;19.80;99.90
18450;DHT22;9354;50.194;7.690;2023-07-09T02:05:19;19.80;99.90
18450;DHT22;9354;50.194;7.690;2023-07-09T02:07:47;19.80;99.90
18450;DHT22;9354;50.194;7.690;2023-07-09T02:10:15;19.80;99.90
18450;DHT22;9354;50.194;7.690;2023-07-09T02:12:43;19.80;99.90
18450;DHT22;9354;50.194;7.690;2023-07-09T02:15:12;19.80;99.90
18450;DHT22;9354;50.194;7.690;2023-07-09T02:17:40;19.80;99.90
18450;DHT22;9354;50.194;7.690;2023-07-09T02:20:09;19.80;99.90
18450;DHT22;9354;50.194;7.690;2023-07-09T02:22:38;19.80;99.90
18450;DHT22;9354;50.194;7.690;2023-07-09T02:25:06;19.90;99.90
18450;DHT22;9354;50.194;7.690;2023-07-09T02:27:35;20.00;99.90
18450;DHT22;9354;50.194;7.690;2023-07-09T02:30:04;20.00;99.90
18450;DHT22;9354;50.194;7.690;2023-07-09T02:32:33;20.00;99.90
18450;DHT22;9354;50.194;7.690;2023-07-09T02:35:01;20.00;99.90
18450;DHT22;9354;50.194;7.690;2023-07-09T02:37:28;20.00;99.90
18450;DHT22;9354;50.194;7.690;2023-07-09T02:39:56;20.00;99.90
18450;DHT22;9354;50.194;7.690;2023-07-09T02:42:23;20.00;99.90
18450;DHT22;9354;50.194;7.690;2023-07-09T02:44:51;20.00;99.90
18450;DHT22;9354;50.194;7.690;2023-07-09T02:47:19;19.80;99.90
18450;DHT22;9354;50.194;7.690;2023-07-09T02:49:48;19.70;99.90
18450;DHT22;9354;50.194;7.690;2023-07-09T02:52:15;19.70;99.90
18450;DHT22;9354;50.194;7.690;2023-07-09T02:54:42;19.70;99.90
18450;DHT22;9354;50.194;7.690;2023-07-09T02:57:10;19.70;99.90
18450;DHT22;9354;50.194;7.690;2023-07-09T02:59:37;19.70;99.90
18450;DHT22;9354;50.194;7.690;2023-07-09T03:02:05;19.70;99.90
18450;DHT22;9354;50.194;7.690;2023-07-09T03:04:33;19.70;99.90
18450;DHT22;9354;50.194;7.690;2023-07-09T03:07:01;19.70;99.90
18450;DHT22;9354;50.194;7.690;2023-07-09T03:09:29;19.70;99.90
18450;DHT22;9354;50.194;7.690;2023-07-09T03:11:57;19.70;99.90
18450;DHT22;9354;50.194;7.690;2023-07-09T03:14:24;19.70;99.90
18450;DHT22;9354;50.194;7.690;2023-07-09T03:16:52;19.60;99.90
18450;DHT22;9354;50.194;7.690;2023-07-09T03:19:19;19.60;99.90
18450;DHT22;9354;50.194;7.690;2023-07-09T03:21:47;19.60;99.90
18450;DHT22;9354;50.194;7.690;2023-07-09T03:24:16;19.60;99.90
18450;DHT22;9354;50.194;7.690;2023-07-09T03:26:44;19.50;99.90
18450;DHT22;9354;50.194;7.690;2023-07-09T03:29:12;19.50;99.90
18450;DHT22;9354;50.194;7.690;2023-07-09T03:31:40;19.50;99.90
18450;DHT22;9354;50.194;7.690;2023-07-09T03:34:07;19.40;99.90
18450;DHT22;9354;50.194;7.690;2023-07-09T03:36:34;19.40;99.90
18450;DHT22;9354;50.194;7.690;2023-07-09T03:39:03;19.40;99.90
18450;DHT22;9354;50.194;7.690;2023-07-09T03:41:32;19.30;99.90
18450;DHT22;9354;50.194;7.690;2023-07-09T03:43:59;19.20;99.90
18450;DHT22;9354;50.194;7.690;2023-07-09T03:46:27;19.10;99.90
18450;DHT22;9354;50.194;7.690;2023-07-09T03:48:54;19.10;99.90
18450;DHT22;9354;50.194;7.690;2023-07-09T03:51:22;19.00;99.90
18450;DHT22;9354;50.194;7.690;2023-07-09T03:53:49;19.00;99.90
18450;DHT22;9354;50.194;7.690;2023-07-09T03:56:17;19.00;99.90
18450;DHT22;9354;50.194;7.690;2023-07-09T03:58:45;19.00;99.90
18450;DHT22;9354;50.194;7.690;2023-07-09T04:01:13;19.00;99.90
18450;DHT22;9354;50.194;7.690;2023-07-09T04:03:42;19.00;99.90
18450;DHT22;9354;50.194;7.690;2023-07-09T04:06:09;19.00;99.90
18450;DHT22;9354;50.194;7.690;2023-07-09T04:08:37;19.00;99.90
18450;DHT22;9354;50.194;7.690;2023-07-09T04:11:04;19.10;99.90
18450;DHT22;9354;50.194;7.690;2023-07-09T04:13:32;19.10;99.90
18450;DHT22;9354;50.194;7.690;2023-07-09T04:16:01;19.10;99.90
18450;DHT22;9354;50.194;7.690;2023-07-09T04:18:28;19.10;99.90
18450;DHT22;9354;50.194;7.690;2023-07-09T04:20:56;19.10;99.90
18450;DHT22;9354;50.194;7.690;2023-07-09T04:23:23;19.10;99.90
18450;DHT22;9354;50.194;7.690;2023-07-09T04:25:50;19.10;99.90
18450;DHT22;9354;50.194;7.690;2023-07-09T04:28:18;19.10;99.90
18450;DHT22;9354;50.194;7.690;2023-07-09T04:30:46;19.20;99.90
18450;DHT22;9354;50.194;7.690;2023-07-09T04:33:17;19.20;99.90
18450;DHT22;9354;50.194;7.690;2023-07-09T04:35:45;19.30;99.90
18450;DHT22;9354;50.194;7.690;2023-07-09T04:38:12;19.40;99.90
18450;DHT22;9354;50.194;7.690;2023-07-09T04:40:40;19.40;99.90
18450;DHT22;9354;50.194;7.690;2023-07-09T04:43:08;19.50;99.90
18450;DHT22;9354;50.194;7.690;2023-07-09T04:45:35;19.60;99.90
18450;DHT22;9354;50.194;7.690;2023-07-09T04:48:03;19.70;99.90
18450;DHT22;9354;50.194;7.690;2023-07-09T04:50:32;19.80;99.90
18450;DHT22;9354;50.194;7.690;2023-07-09T04:53:00;19.80;99.90
18450;DHT22;9354;50.194;7.690;2023-07-09T04:55:27;19.90;99.90
18450;DHT22;9354;50.194;7.690;2023-07-09T04:57:55;20.00;99.90
18450;DHT22;9354;50.194;7.690;2023-07-09T05:00:22;20.00;99.90
18450;DHT22;9354;50.194;7.690;2023-07-09T05:02:50;20.10;99.90
18450;DHT22;9354;50.194;7.690;2023-07-09T05:05:17;20.10;99.90
18450;DHT22;9354;50.194;7.690;2023-07-09T05:07:46;20.20;99.90
18450;DHT22;9354;50.194;7.690;2023-07-09T05:10:14;20.20;99.90
18450;DHT22;9354;50.194;7.690;2023-07-09T05:12:48;20.30;99.90
18450;DHT22;9354;50.194;7.690;2023-07-09T05:15:16;20.40;99.90
18450;DHT22;9354;50.194;7.690;2023-07-09T05:17:44;20.50;99.90
18450;DHT22;9354;50.194;7.690;2023-07-09T05:20:12;20.50;99.90
18450;DHT22;9354;50.194;7.690;2023-07-09T05:22:40;20.60;99.90
18450;DHT22;9354;50.194;7.690;2023-07-09T05:25:09;20.70;99.90
18450;DHT22;9354;50.194;7.690;2023-07-09T05:27:37;20.90;99.90
18450;DHT22;9354;50.194;7.690;2023-07-09T05:30:05;20.90;99.90
18450;DHT22;9354;50.194;7.690;2023-07-09T05:32:33;21.00;99.90
18450;DHT22;9354;50.194;7.690;2023-07-09T05:35:01;21.10;99.90
18450;DHT22;9354;50.194;7.690;2023-07-09T05:37:28;21.20;99.90
18450;DHT22;9354;50.194;7.690;2023-07-09T05:39:55;21.20;99.90
18450;DHT22;9354;50.194;7.690;2023-07-09T05:42:24;21.30;99.90
18450;DHT22;9354;50.194;7.690;2023-07-09T05:44:51;21.40;99.90
18450;DHT22;9354;50.194;7.690;2023-07-09T05:47:19;21.50;99.90
18450;DHT22;9354;50.194;7.690;2023-07-09T05:49:46;21.50;99.90
18450;DHT22;9354;50.194;7.690;2023-07-09T05:52:16;21.50;99.90
18450;DHT22;9354;50.194;7.690;2023-07-09T05:54:44;21.60;99.90
18450;DHT22;9354;50.194;7.690;2023-07-09T05:57:11;21.70;99.90
18450;DHT22;9354;50.194;7.690;2023-07-09T05:59:40;21.70;99.90
18450;DHT22;9354;50.194;7.690;2023-07-09T06:02:10;21.70;99.90
18450;DHT22;9354;50.194;7.690;2023-07-09T06:04:38;21.80;99.90
18450;DHT22;9354;50.194;7.690;2023-07-09T06:07:05;21.90;99.90
18450;DHT22;9354;50.194;7.690;2023-07-09T06:09:33;21.90;99.90
18450;DHT22;9354;50.194;7.690;2023-07-09T06:12:00;22.00;99.90
18450;DHT22;9354;50.194;7.690;2023-07-09T06:14:28;22.10;99.90
18450;DHT22;9354;50.194;7.690;2023-07-09T06:16:57;22.10;99.90
18450;DHT22;9354;50.194;7.690;2023-07-09T06:19:24;22.20;99.90
18450;DHT22;9354;50.194;7.690;2023-07-09T06:21:52;22.30;99.90
18450;DHT22;9354;50.194;7.690;2023-07-09T06:24:19;22.40;99.90
18450;DHT22;9354;50.194;7.690;2023-07-09T06:26:46;22.50;99.90
18450;DHT22;9354;50.194;7.690;2023-07-09T06:29:14;22.50;99.90
18450;DHT22;9354;50.194;7.690;2023-07-09T06:31:41;22.60;99.90
18450;DHT22;9354;50.194;7.690;2023-07-09T06:34:10;22.70;99.90
18450;DHT22;9354;50.194;7.690;2023-07-09T06:36:38;22.80;99.90
18450;DHT22;9354;50.194;7.690;2023-07-09T06:39:05;22.90;99.90
18450;DHT22;9354;50.194;7.690;2023-07-09T06:41:33;23.00;99.90
18450;DHT22;9354;50.194;7.690;2023-07-09T06:44:05;23.10;99.90
18450;DHT22;9354;50.194;7.690;2023-07-09T06:46:33;23.20;99.90
18450;DHT22;9354;50.194;7.690;2023-07-09T06:49:00;23.20;99.90
18450;DHT22;9354;50.194;7.690;2023-07-09T06:51:29;23.30;99.90
18450;DHT22;9354;50.194;7.690;2023-07-09T06:53:57;23.40;99.90
18450;DHT22;9354;50.194;7.690;2023-07-09T06:56:24;23.50;99.90
18450;DHT22;9354;50.194;7.690;2023-07-09T06:58:51;23.60;99.90
18450;DHT22;9354;50.194;7.690;2023-07-09T07:01:19;23.70;99.90
18450;DHT22;9354;50.194;7.690;2023-07-09T07:03:46;23.80;99.90
18450;DHT22;9354;50.194;7.690;2023-07-09T07:06:14;23.90;99.90
18450;DHT22;9354;50.194;7.690;2023-07-09T07:08:43;24.00;99.90
18450;DHT22;9354;50.194;7.690;2023-07-09T07:11:11;24.10;99.90
18450;DHT22;9354;50.194;7.690;2023-07-09T07:13:39;24.30;99.90
18450;DHT22;9354;50.194;7.690;2023-07-09T07:16:09;24.40;99.90
18450;DHT22;9354;50.194;7.690;2023-07-09T07:18:37;24.50;99.90
18450;DHT22;9354;50.194;7.690;2023-07-09T07:21:04;24.70;99.90
18450;DHT22;9354;50.194;7.690;2023-07-09T07:23:32;24.80;99.90
18450;DHT22;9354;50.194;7.690;2023-07-09T07:26:01;24.90;99.90
18450;DHT22;9354;50.194;7.690;2023-07-09T07:28:29;25.00;99.90
18450;DHT22;9354;50.194;7.690;2023-07-09T07:31:00;25.10;99.90
18450;DHT22;9354;50.194;7.690;2023-07-09T07:33:28;25.20;99.90
18450;DHT22;9354;50.194;7.690;2023-07-09T07:35:55;25.30;99.90
18450;DHT22;9354;50.194;7.690;2023-07-09T07:38:22;25.40;99.90
18450;DHT22;9354;50.194;7.690;2023-07-09T07:40:50;25.60;99.90
18450;DHT22;9354;50.194;7.690;2023-07-09T07:43:18;25.80;99.90
18450;DHT22;9354;50.194;7.690;2023-07-09T07:45:51;25.90;99.90
18450;DHT22;9354;50.194;7.690;2023-07-09T07:48:18;26.10;99.90
18450;DHT22;9354;50.194;7.690;2023-07-09T07:50:46;26.20;99.90
18450;DHT22;9354;50.194;7.690;2023-07-09T07:53:14;26.40;99.90
18450;DHT22;9354;50.194;7.690;2023-07-09T07:55:41;26.60;99.90
18450;DHT22;9354;50.194;7.690;2023-07-09T07:58:13;26.80;99.90
18450;DHT22;9354;50.194;7.690;2023-07-09T08:00:41;26.90;99.90
18450;DHT22;9354;50.194;7.690;2023-07-09T08:03:09;26.90;99.90
18450;DHT22;9354;50.194;7.690;2023-07-09T08:05:36;27.00;99.90
18450;DHT22;9354;50.194;7.690;2023-07-09T08:08:04;27.10;99.90
18450;DHT22;9354;50.194;7.690;2023-07-09T08:10:31;27.30;99.90
18450;DHT22;9354;50.194;7.690;2023-07-09T08:12:59;27.40;99.90
18450;DHT22;9354;50.194;7.690;2023-07-09T08:15:27;27.50;99.90
18450;DHT22;9354;50.194;7.690;2023-07-09T08:17:56;27.80;99.80
18450;DHT22;9354;50.194;7.690;2023-07-09T08:20:24;27.90;99.60
18450;DHT22;9354;50.194;7.690;2023-07-09T08:22:51;28.00;99.10
18450;DHT22;9354;50.194;7.690;2023-07-09T08:25:18;28.10;99.10
18450;DHT22;9354;50.194;7.690;2023-07-09T08:27:46;28.30;98.80
18450;DHT22;9354;50.194;7.690;2023-07-09T08:30:14;28.50;98.40
18450;DHT22;9354;50.194;7.690;2023-07-09T08:32:41;28.70;98.30
18450;DHT22;9354;50.194;7.690;2023-07-09T08:35:10;28.90;98.20
18450;DHT22;9354;50.194;7.690;2023-07-09T08:37:38;29.10;97.90
18450;DHT22;9354;50.194;7.690;2023-07-09T08:40:09;29.40;97.80
18450;DHT22;9354;50.194;7.690;2023-07-09T08:42:42;29.70;97.20
18450;DHT22;9354;50.194;7.690;2023-07-09T08:45:24;29.80;97.00
18450;DHT22;9354;50.194;7.690;2023-07-09T08:47:59;30.00;96.50
18450;DHT22;9354;50.194;7.690;2023-07-09T08:50:35;30.20;96.50
18450;DHT22;9354;50.194;7.690;2023-07-09T08:53:05;30.40;95.80
18450;DHT22;9354;50.194;7.690;2023-07-09T08:55:33;30.50;95.60
18450;DHT22;9354;50.194;7.690;2023-07-09T08:58:12;30.70;95.00
18450;DHT22;9354;50.194;7.690;2023-07-09T09:00:44;30.80;94.90
18450;DHT22;9354;50.194;7.690;2023-07-09T09:03:26;30.90;94.60
18450;DHT22;9354;50.194;7.690;2023-07-09T09:05:57;30.90;94.20
18450;DHT22;9354;50.194;7.690;2023-07-09T09:08:33;31.00;94.00
18450;DHT22;9354;50.194;7.690;2023-07-09T09:11:10;31.10;93.80
18450;DHT22;9354;50.194;7.690;2023-07-09T09:13:41;31.10;94.00
18450;DHT22;9354;50.194;7.690;2023-07-09T09:16:17;31.20;93.60
18450;DHT22;9354;50.194;7.690;2023-07-09T09:18:49;31.50;93.50
18450;DHT22;9354;50.194;7.690;2023-07-09T09:21:22;31.80;92.70
18450;DHT22;9354;50.194;7.690;2023-07-09T09:23:52;31.90;92.30
18450;DHT22;9354;50.194;7.690;2023-07-09T09:26:24;32.00;91.80
18450;DHT22;9354;50.194;7.690;2023-07-09T09:28:53;32.00;91.70
18450;DHT22;9354;50.194;7.690;2023-07-09T09:31:20;32.20;91.40
18450;DHT22;9354;50.194;7.690;2023-07-09T09:33:49;32.40;91.20
18450;DHT22;9354;50.194;7.690;2023-07-09T09:36:20;32.60;90.60
18450;DHT22;9354;50.194;7.690;2023-07-09T09:38:48;32.70;90.40
18450;DHT22;9354;50.194;7.690;2023-07-09T09:41:19;32.70;88.90
18450;DHT22;9354;50.194;7.690;2023-07-09T09:43:48;32.70;90.00
18450;DHT22;9354;50.194;7.690;2023-07-09T09:46:21;32.70;88.50
18450;DHT22;9354;50.194;7.690;2023-07-09T09:48:49;32.70;88.90
18450;DHT22;9354;50.194;7.690;2023-07-09T09:51:19;32.70;88.60
18450;DHT22;9354;50.194;7.690;2023-07-09T09:53:50;32.70;88.90
18450;DHT22;9354;50.194;7.690;2023-07-09T09:56:25;32.80;88.60
18450;DHT22;9354;50.194;7.690;2023-07-09T09:58:54;32.90;89.40
18450;DHT22;9354;50.194;7.690;2023-07-09T10:01:27;33.20;89.20
18450;DHT22;9354;50.194;7.690;2023-07-09T10:03:57;33.30;87.70
18450;DHT22;9354;50.194;7.690;2023-07-09T10:06:33;33.40;86.70
18450;DHT22;9354;50.194;7.690;2023-07-09T10:09:08;33.40;85.30
18450;DHT22;9354;50.194;7.690;2023-07-09T10:11:45;33.50;87.20
18450;DHT22;9354;50.194;7.690;2023-07-09T10:14:25;33.60;86.50
18450;DHT22;9354;50.194;7.690;2023-07-09T10:16:59;33.60;85.40
18450;DHT22;9354;50.194;7.690;2023-07-09T10:19:35;33.60;85.00
18450;DHT22;9354;50.194;7.690;2023-07-09T10:22:15;33.60;85.30
18450;DHT22;9354;50.194;7.690;2023-07-09T10:24:51;33.70;85.60
18450;DHT22;9354;50.194;7.690;2023-07-09T10:27:27;33.70;85.10
18450;DHT22;9354;50.194;7.690;2023-07-09T10:30:08;33.80;84.00
18450;DHT22;9354;50.194;7.690;2023-07-09T10:32:49;33.80;85.60
18450;DHT22;9354;50.194;7.690;2023-07-09T10:35:27;33.90;85.20
18450;DHT22;9354;50.194;7.690;2023-07-09T10:41:00;33.90;84.80
18450;DHT22;9354;50.194;7.690;2023-07-09T10:43:35;33.90;83.70
18450;DHT22;9354;50.194;7.690;2023-07-09T10:46:09;33.90;80.00
18450;DHT22;9354;50.194;7.690;2023-07-09T10:48:41;33.80;80.70
18450;DHT22;9354;50.194;7.690;2023-07-09T10:51:16;33.90;80.70
18450;DHT22;9354;50.194;7.690;2023-07-09T10:53:49;34.00;78.80
18450;DHT22;9354;50.194;7.690;2023-07-09T10:56:21;34.10;78.70
18450;DHT22;9354;50.194;7.690;2023-07-09T10:58:53;34.00;78.00
18450;DHT22;9354;50.194;7.690;2023-07-09T11:01:29;34.10;77.90
18450;DHT22;9354;50.194;7.690;2023-07-09T11:04:01;34.10;77.80
18450;DHT22;9354;50.194;7.690;2023-07-09T11:06:33;34.10;77.30
18450;DHT22;9354;50.194;7.690;2023-07-09T11:09:05;34.20;77.40
18450;DHT22;9354;50.194;7.690;2023-07-09T11:11:38;34.20;74.90
18450;DHT22;9354;50.194;7.690;2023-07-09T11:14:14;34.20;77.10
18450;DHT22;9354;50.194;7.690;2023-07-09T11:16:44;34.20;75.70
18450;DHT22;9354;50.194;7.690;2023-07-09T11:19:17;34.10;74.70
18450;DHT22;9354;50.194;7.690;2023-07-09T11:22:02;34.10;76.20
18450;DHT22;9354;50.194;7.690;2023-07-09T11:24:34;34.10;75.60
18450;DHT22;9354;50.194;7.690;2023-07-09T11:27:02;34.10;74.60
18450;DHT22;9354;50.194;7.690;2023-07-09T11:29:30;34.20;74.30
18450;DHT22;9354;50.194;7.690;2023-07-09T11:32:08;34.20;74.40
18450;DHT22;9354;50.194;7.690;2023-07-09T11:34:45;34.30;74.60
18450;DHT22;9354;50.194;7.690;2023-07-09T11:37:14;34.30;74.70
18450;DHT22;9354;50.194;7.690;2023-07-09T11:39:46;34.30;74.50
18450;DHT22;9354;50.194;7.690;2023-07-09T11:42:28;34.40;74.70
18450;DHT22;9354;50.194;7.690;2023-07-09T11:45:05;34.50;74.50
18450;DHT22;9354;50.194;7.690;2023-07-09T11:47:38;34.50;73.80
18450;DHT22;9354;50.194;7.690;2023-07-09T11:50:19;34.40;74.20
18450;DHT22;9354;50.194;7.690;2023-07-09T11:52:52;34.40;73.70
18450;DHT22;9354;50.194;7.690;2023-07-09T11:55:26;34.50;74.60
18450;DHT22;9354;50.194;7.690;2023-07-09T11:57:55;34.60;73.00
18450;DHT22;9354;50.194;7.690;2023-07-09T12:00:24;34.50;72.80
18450;DHT22;9354;50.194;7.690;2023-07-09T12:02:52;34.50;73.90
18450;DHT22;9354;50.194;7.690;2023-07-09T12:05:25;34.50;73.90
18450;DHT22;9354;50.194;7.690;2023-07-09T12:07:54;34.50;73.20
18450;DHT22;9354;50.194;7.690;2023-07-09T12:10:24;34.60;72.20
18450;DHT22;9354;50.194;7.690;2023-07-09T12:12:55;34.60;72.60
18450;DHT22;9354;50.194;7.690;2023-07-09T12:15:25;34.70;72.20
18450;DHT22;9354;50.194;7.690;2023-07-09T12:17:55;34.80;70.70
18450;DHT22;9354;50.194;7.690;2023-07-09T12:20:23;34.80;70.00
18450;DHT22;9354;50.194;7.690;2023-07-09T12:22:51;34.70;68.90
18450;DHT22;9354;50.194;7.690;2023-07-09T12:25:23;34.60;70.60
18450;DHT22;9354;50.194;7.690;2023-07-09T12:27:51;34.60;70.20
18450;DHT22;9354;50.194;7.690;2023-07-09T12:30:19;34.50;67.70
18450;DHT22;9354;50.194;7.690;2023-07-09T12:32:48;34.50;69.50
18450;DHT22;9354;50.194;7.690;2023-07-09T12:35:18;34.50;70.30
18450;DHT22;9354;50.194;7.690;2023-07-09T12:37:48;34.40;70.10
18450;DHT22;9354;50.194;7.690;2023-07-09T12:40:22;34.40;71.00
18450;DHT22;9354;50.194;7.690;2023-07-09T12:42:50;34.60;71.30
18450;DHT22;9354;50.194;7.690;2023-07-09T12:45:21;34.80;71.20
18450;DHT22;9354;50.194;7.690;2023-07-09T12:47:49;34.90;70.10
18450;DHT22;9354;50.194;7.690;2023-07-09T12:50:27;34.80;69.90
18450;DHT22;9354;50.194;7.690;2023-07-09T12:52:59;34.90;70.60
18450;DHT22;9354;50.194;7.690;2023-07-09T12:55:29;34.90;70.10
18450;DHT22;9354;50.194;7.690;2023-07-09T12:58:10;35.00;69.60
18450;DHT22;9354;50.194;7.690;2023-07-09T13:00:38;35.00;69.10
18450;DHT22;9354;50.194;7.690;2023-07-09T13:03:13;35.00;68.70
18450;DHT22;9354;50.194;7.690;2023-07-09T13:05:52;35.00;69.50
18450;DHT22;9354;50.194;7.690;2023-07-09T13:08:19;35.10;67.30
18450;DHT22;9354;50.194;7.690;2023-07-09T13:10:48;35.10;68.30
18450;DHT22;9354;50.194;7.690;2023-07-09T13:13:19;35.20;67.30
18450;DHT22;9354;50.194;7.690;2023-07-09T13:15:50;35.20;67.90
18450;DHT22;9354;50.194;7.690;2023-07-09T13:18:20;35.20;66.10
18450;DHT22;9354;50.194;7.690;2023-07-09T13:20:48;35.10;65.70
18450;DHT22;9354;50.194;7.690;2023-07-09T13:23:17;35.10;66.50
18450;DHT22;9354;50.194;7.690;2023-07-09T13:25:46;35.10;66.50
18450;DHT22;9354;50.194;7.690;2023-07-09T13:28:19;35.00;66.90
18450;DHT22;9354;50.194;7.690;2023-07-09T13:30:47;35.00;66.80
18450;DHT22;9354;50.194;7.690;2023-07-09T13:33:16;35.00;67.00
18450;DHT22;9354;50.194;7.690;2023-07-09T13:35:44;35.00;66.90
18450;DHT22;9354;50.194;7.690;2023-07-09T13:38:15;35.00;67.00
18450;DHT22;9354;50.194;7.690;2023-07-09T13:40:44;35.00;66.80
18450;DHT22;9354;50.194;7.690;2023-07-09T13:43:13;34.90;67.40
18450;DHT22;9354;50.194;7.690;2023-07-09T13:45:42;34.90;68.20
18450;DHT22;9354;50.194;7.690;2023-07-09T13:48:14;35.00;67.40
18450;DHT22;9354;50.194;7.690;2023-07-09T13:50:42;35.00;67.00
18450;DHT22;9354;50.194;7.690;2023-07-09T13:53:14;35.00;66.90
18450;DHT22;9354;50.194;7.690;2023-07-09T13:55:42;34.90;66.90
18450;DHT22;9354;50.194;7.690;2023-07-09T13:58:10;34.80;66.30
18450;DHT22;9354;50.194;7.690;2023-07-09T14:00:38;34.60;67.30
18450;DHT22;9354;50.194;7.690;2023-07-09T14:03:12;34.50;67.60
18450;DHT22;9354;50.194;7.690;2023-07-09T14:05:41;34.50;67.70
18450;DHT22;9354;50.194;7.690;2023-07-09T14:08:09;34.40;67.30
18450;DHT22;9354;50.194;7.690;2023-07-09T14:10:37;34.20;67.30
18450;DHT22;9354;50.194;7.690;2023-07-09T14:13:04;34.10;68.10
18450;DHT22;9354;50.194;7.690;2023-07-09T14:15:32;34.00;69.20
18450;DHT22;9354;50.194;7.690;2023-07-09T14:17:59;33.80;68.30
18450;DHT22;9354;50.194;7.690;2023-07-09T14:20:28;33.70;68.40
18450;DHT22;9354;50.194;7.690;2023-07-09T14:22:55;33.60;69.70
18450;DHT22;9354;50.194;7.690;2023-07-09T14:25:24;33.50;70.60
18450;DHT22;9354;50.194;7.690;2023-07-09T14:27:54;33.40;70.30
18450;DHT22;9354;50.194;7.690;2023-07-09T14:30:24;33.30;71.00
18450;DHT22;9354;50.194;7.690;2023-07-09T14:32:52;33.20;71.20
18450;DHT22;9354;50.194;7.690;2023-07-09T14:35:21;33.10;71.70
18450;DHT22;9354;50.194;7.690;2023-07-09T14:37:51;33.00;72.50
18450;DHT22;9354;50.194;7.690;2023-07-09T14:40:21;33.00;72.30
18450;DHT22;9354;50.194;7.690;2023-07-09T14:42:49;32.90;72.70
18450;DHT22;9354;50.194;7.690;2023-07-09T14:45:19;32.80;73.40
18450;DHT22;9354;50.194;7.690;2023-07-09T14:47:48;32.70;73.40
18450;DHT22;9354;50.194;7.690;2023-07-09T14:50:15;32.70;73.70
18450;DHT22;9354;50.194;7.690;2023-07-09T14:52:45;32.60;73.80
18450;DHT22;9354;50.194;7.690;2023-07-09T14:55:19;32.50;74.20
18450;DHT22;9354;50.194;7.690;2023-07-09T14:57:47;32.50;74.60
18450;DHT22;9354;50.194;7.690;2023-07-09T15:00:16;32.40;74.60
18450;DHT22;9354;50.194;7.690;2023-07-09T15:02:45;32.30;75.10
18450;DHT22;9354;50.194;7.690;2023-07-09T15:05:15;32.30;75.50
18450;DHT22;9354;50.194;7.690;2023-07-09T15:07:44;32.20;75.60
18450;DHT22;9354;50.194;7.690;2023-07-09T15:10:13;32.10;75.90
18450;DHT22;9354;50.194;7.690;2023-07-09T15:12:43;32.00;79.00
18450;DHT22;9354;50.194;7.690;2023-07-09T15:15:18;31.60;81.50
18450;DHT22;9354;50.194;7.690;2023-07-09T15:17:47;30.90;84.30
18450;DHT22;9354;50.194;7.690;2023-07-09T15:20:16;30.20;86.40
18450;DHT22;9354;50.194;7.690;2023-07-09T15:22:44;29.70;87.80
18450;DHT22;9354;50.194;7.690;2023-07-09T15:25:14;29.20;89.50
18450;DHT22;9354;50.194;7.690;2023-07-09T15:27:43;28.80;90.40
18450;DHT22;9354;50.194;7.690;2023-07-09T15:30:13;28.40;90.70
18450;DHT22;9354;50.194;7.690;2023-07-09T15:32:40;28.20;90.90
18450;DHT22;9354;50.194;7.690;2023-07-09T15:35:08;28.00;91.10
18450;DHT22;9354;50.194;7.690;2023-07-09T15:37:36;27.90;91.20
18450;DHT22;9354;50.194;7.690;2023-07-09T15:40:05;27.80;91.40
18450;DHT22;9354;50.194;7.690;2023-07-09T15:42:40;27.70;91.50
18450;DHT22;9354;50.194;7.690;2023-07-09T15:45:13;27.70;91.60
18450;DHT22;9354;50.194;7.690;2023-07-09T15:47:40;27.60;91.70
18450;DHT22;9354;50.194;7.690;2023-07-09T15:50:15;27.60;91.90
18450;DHT22;9354;50.194;7.690;2023-07-09T15:52:44;27.40;92.00
18450;DHT22;9354;50.194;7.690;2023-07-09T15:55:19;27.40;92.10
18450;DHT22;9354;50.194;7.690;2023-07-09T15:57:47;27.30;92.10
18450;DHT22;9354;50.194;7.690;2023-07-09T16:00:20;27.30;92.10
18450;DHT22;9354;50.194;7.690;2023-07-09T16:02:49;27.30;92.20